Terminal Aerodrome Forecast
Issued by NWS

Home | Current Version | Previous Version | Text Only | Print | Product List | Glossary On
Versions: 1 2 3 4 5 6 7 8 9 10 11 12 13
000
FTUS44 KTSA 201100
TAFFYV
TAF
KFYV 201120Z 2012/2112 00000KT P6SM BKN150
     FM201500 18009KT P6SM SCT060 BKN150
     FM210000 16004KT P6SM BKN040 PROB30 2103/2108 5SM -TSRA
      BKN030CB
     FM210800 16004KT P6SM VCTS OVC025CB
      TEMPO 2108/2112 5SM -TSRA BR OVC025CB=

USA.gov is the U.S. government's official web portal to all federal, state and local government web resources and services.